This is the latest recevied weather packets stored in our database for station/object EA2RCU-15. If no packets are shown the sender has not sent any weather packets the latest 1 day(s).
| Time | Temp. | Humidity | Pressure | Rain* | Wind** | Luminosity | Snow |
|---|---|---|---|---|---|---|---|
| 1777989306 | 14.44° C | 60% | 997 hPa | 2.03 mm | 0 m/s | - | - |
| 1777989006 | 15° C | 57% | 997 hPa | 1.02 mm | 0 m/s | - | - |
| 1777988707 | 15.56° C | 55% | 997 hPa | 1.02 mm | 0 m/s | - | - |
| 1777988406 | 16.11° C | 54% | 997 hPa | 1.02 mm | 0 m/s | - | - |
| 1777988106 | 16.11° C | 54% | 997 hPa | 1.02 mm | 0 m/s | - | - |
| 1777987806 | 16.67° C | 55% | 997 hPa | 1.02 mm | 0 m/s | - | - |
| 1777987506 | 16.67° C | 55% | 997 hPa | 1.02 mm | 0 m/s | - | - |
| 1777987207 | 16.11° C | 54% | 997 hPa | 1.02 mm | 0 m/s | - | - |
| 1777986906 | 16.11° C | 54% | 997 hPa | 1.02 mm | 0 m/s | - | - |
| 1777986606 | 16.11° C | 53% | 997 hPa | 0 mm | 0 m/s | - | - |
| 1777986306 | 16.11° C | 52% | 997 hPa | 0 mm | 0 m/s | - | - |
| 1777986006 | 16.11° C | 50% | 997 hPa | 0 mm | 0 m/s | - | - |
| 1777985706 | 16.67° C | 49% | 997 hPa | 0 mm | 0 m/s | - | - |
| 1777985406 | 16.67° C | 48% | 997 hPa | 0 mm | 0 m/s | - | - |
| 1777985106 | 17.22° C | 47% | 997 hPa | 0 mm | 0 m/s | - | - |
| 1777984806 | 17.22° C | 46% | 997 hPa | 0 mm | 0 m/s | - | - |
| 1777984506 | 17.78° C | 46% | 997 hPa | 0 mm | 0 m/s | - | - |
| 1777984206 | 18.33° C | 45% | 997 hPa | 1.02 mm | 0 m/s | - | - |
| 1777983906 | 18.33° C | 45% | 997 hPa | 1.02 mm | 0 m/s | - | - |
| 1777983606 | 18.89° C | 45% | 997 hPa | 1.02 mm | 0 m/s | - | - |
| 1777983306 | 18.89° C | 47% | 997 hPa | 1.02 mm | 0 m/s | - | - |
| 1777983015 | 18.33° C | 49% | 997 hPa | 1.02 mm | 0 m/s | - | - |
| 1777982706 | 17.78° C | 51% | 997 hPa | 1.02 mm | 0 m/s | - | - |
| 1777982406 | 17.22° C | 54% | 997 hPa | 2.03 mm | 0 m/s | - | - |
| 1777982106 | 16.67° C | 58% | 997 hPa | 2.03 mm | 0 m/s | - | - |
* Rain latest hour (hover to see other rain measurements)
** Current wind speed in m/s (hover to see current wind gust speed)